createdAt,value
2023-01-18T00:01:10.171Z,100329.69
2023-01-18T00:06:32.361Z,100316.28
2023-01-18T00:11:54.546Z,100317.69
2023-01-18T00:17:16.529Z,100319.75
2023-01-18T00:22:38.533Z,100320.97
2023-01-18T00:28:00.536Z,100317.28
2023-01-18T00:33:28.084Z,100307.34
2023-01-18T00:38:56.204Z,100319.13
2023-01-18T00:44:18.443Z,100326.25
2023-01-18T00:49:43.908Z,100320.56
2023-01-18T00:55:06.897Z,100317.91
2023-01-18T01:00:32.110Z,100329.47
2023-01-18T01:06:20.388Z,100316.28
2023-01-18T01:12:09.312Z,100317.50
2023-01-18T01:17:55.953Z,100338.25
2023-01-18T01:23:42.285Z,100325.03
2023-01-18T01:29:05.349Z,100309.78
2023-01-18T01:34:27.655Z,100305.28
2023-01-18T01:39:50.307Z,100311.59
2023-01-18T01:45:12.352Z,100295.56
2023-01-18T01:50:38.986Z,100305.69
2023-01-18T01:56:01.188Z,100294.13
2023-01-18T02:01:23.599Z,100285.19
2023-01-18T02:06:45.388Z,100276.22
2023-01-18T02:12:07.470Z,100263.03
2023-01-18T02:18:03.080Z,100252.66
2023-01-18T02:23:46.529Z,100278.47
2023-01-18T02:29:15.073Z,100270.13
2023-01-18T02:34:57.687Z,100283.56
2023-01-18T02:40:31.032Z,100278.69
2023-01-18T02:46:11.551Z,100267.09
2023-01-18T02:51:34.534Z,100266.69
2023-01-18T02:56:59.421Z,100265.47
2023-01-18T03:02:27.052Z,100262.22
2023-01-18T03:08:06.645Z,100281.72
2023-01-18T03:13:31.550Z,100267.09
2023-01-18T03:19:02.776Z,100273.00
2023-01-18T03:24:24.833Z,100263.81
2023-01-18T03:30:06.071Z,100267.50
2023-01-18T03:35:30.680Z,100275.41
2023-01-18T03:40:53.148Z,100284.38
2023-01-18T03:46:18.064Z,100283.97
2023-01-18T03:52:02.126Z,100279.28
2023-01-18T03:57:34.984Z,100291.91
2023-01-18T04:02:57.437Z,100297.97
2023-01-18T04:08:22.396Z,100309.16
2023-01-18T04:13:44.860Z,100323.78
2023-01-18T04:19:09.189Z,100321.34
2023-01-18T04:24:31.191Z,100334.13
2023-01-18T04:29:53.492Z,100323.53
2023-01-18T04:35:16.005Z,100315.63
2023-01-18T04:40:38.640Z,100316.41
2023-01-18T04:46:01.007Z,100314.94
2023-01-18T04:51:24.689Z,100324.69
2023-01-18T04:56:46.929Z,100338.88
2023-01-18T05:02:09.001Z,100324.25
2023-01-18T05:07:34.402Z,100344.06
2023-01-18T05:12:56.730Z,100355.75
2023-01-18T05:18:19.042Z,100358.63
2023-01-18T05:23:41.516Z,100371.44
2023-01-18T05:30:06.786Z,100389.91
2023-01-18T05:35:43.265Z,100394.72
2023-01-18T05:41:48.868Z,100392.47
2023-01-18T05:47:14.502Z,100391.44
2023-01-18T05:52:47.660Z,100388.97
2023-01-18T05:58:39.167Z,100391.59
2023-01-18T06:04:05.869Z,100408.72
2023-01-18T06:09:43.168Z,100394.47
2023-01-18T06:15:52.588Z,100413.00
2023-01-18T06:21:24.376Z,100418.19
2023-01-18T06:32:51.188Z,100409.31
2023-01-18T06:38:16.267Z,100386.09
2023-01-18T06:43:38.929Z,100393.38
2023-01-18T06:49:00.890Z,100381.63
2023-01-18T06:54:22.683Z,100368.16
2023-01-18T06:59:44.848Z,100397.19
2023-01-18T07:05:07.543Z,100398.59
2023-01-18T07:10:29.616Z,100416.50
2023-01-18T07:16:00.006Z,100425.47
2023-01-18T07:21:33.231Z,100414.91
2023-01-18T07:26:55.868Z,100422.25
2023-01-18T07:32:25.530Z,100408.81
2023-01-18T07:37:53.727Z,100401.13
2023-01-18T07:43:21.840Z,100389.75
2023-01-18T07:48:56.261Z,100400.13
2023-01-18T07:54:41.540Z,100415.84
2023-01-18T08:00:22.168Z,100425.22
2023-01-18T08:06:04.720Z,100425.97
2023-01-18T08:11:27.161Z,100427.59
2023-01-18T08:16:59.220Z,100420.47
2023-01-18T08:22:39.951Z,100442.28
2023-01-18T08:28:06.102Z,100443.84
2023-01-18T08:33:28.462Z,100450.31
2023-01-18T08:38:58.642Z,100471.78
2023-01-18T08:44:21.012Z,100474.31
2023-01-18T08:49:43.448Z,100457.44
2023-01-18T08:55:06.849Z,100465.06
2023-01-18T09:00:31.640Z,100493.91
2023-01-18T09:05:53.891Z,100498.78
2023-01-18T09:11:17.651Z,100515.09
2023-01-18T09:16:39.856Z,100501.53
2023-01-18T09:22:01.933Z,100487.91
2023-01-18T09:27:24.276Z,100507.59
2023-01-18T09:32:43.349Z,100474.19
2023-01-18T09:38:05.403Z,100483.81
2023-01-18T09:43:40.029Z,100524.09
2023-01-18T09:55:09.349Z,100519.69
2023-01-18T10:00:38.136Z,100514.16
2023-01-18T10:06:11.939Z,100513.78
2023-01-18T10:11:57.671Z,100509.78
2023-01-18T10:17:29.321Z,100501.03
2023-01-18T10:23:20.694Z,100512.00
2023-01-18T10:28:42.649Z,100512.81
2023-01-18T10:34:19.933Z,100513.63
2023-01-18T10:39:53.907Z,100513.22
2023-01-18T10:45:23.285Z,100513.84
2023-01-18T10:50:53.313Z,100529.78
2023-01-18T10:56:26.980Z,100526.34
2023-01-18T11:01:57.737Z,100521.84
2023-01-18T11:07:25.918Z,100509.91
2023-01-18T11:12:54.082Z,100505.47
2023-01-18T11:18:19.555Z,100493.25
2023-01-18T11:23:43.896Z,100491.66
2023-01-18T11:29:15.761Z,100477.81
2023-01-18T11:34:48.209Z,100487.44
2023-01-18T11:40:20.242Z,100498.00
2023-01-18T11:45:57.272Z,100513.66
2023-01-18T11:51:45.552Z,100515.72
2023-01-18T11:57:12.887Z,100506.16
2023-01-18T12:03:02.195Z,100514.50
2023-01-18T12:09:06.764Z,100514.34
2023-01-18T12:14:45.468Z,100509.47
2023-01-18T12:20:20.313Z,100500.28
2023-01-18T12:26:18.532Z,100533.09
2023-01-18T12:32:14.156Z,100521.25
2023-01-18T12:38:35.093Z,100531.88
2023-01-18T12:44:26.889Z,100534.75
2023-01-18T12:51:19.172Z,100512.75
2023-01-18T12:57:25.139Z,100538.00
2023-01-18T13:03:10.613Z,100548.38
2023-01-18T13:16:27.269Z,100538.44
2023-01-18T13:22:43.871Z,100535.19
2023-01-18T13:28:49.801Z,100515.03
2023-01-18T13:34:47.303Z,100522.56
2023-01-18T13:55:55.930Z,100510.16
2023-01-18T14:01:37.163Z,100515.47
2023-01-18T14:07:18.593Z,100500.59
2023-01-18T14:13:01.167Z,100505.50
2023-01-18T14:18:54.448Z,100517.91
2023-01-18T14:25:02.042Z,100537.66
2023-01-18T14:31:04.566Z,100533.56
2023-01-18T14:36:42.652Z,100514.00
2023-01-18T14:42:12.621Z,100482.88
2023-01-18T14:47:40.920Z,100505.47
2023-01-18T14:53:05.638Z,100503.41
2023-01-18T14:58:37.472Z,100516.88
2023-01-18T15:04:08.111Z,100513.19
2023-01-18T15:09:33.736Z,100515.25
2023-01-18T15:15:05.692Z,100527.84
2023-01-18T15:20:34.381Z,100518.06
2023-01-18T15:25:59.559Z,100529.03
2023-01-18T15:31:21.800Z,100516.44
2023-01-18T15:36:54.006Z,100521.31
2023-01-18T15:42:26.513Z,100513.94
2023-01-18T15:48:01.134Z,100520.91
2023-01-18T15:53:35.506Z,100518.84
2023-01-18T15:59:06.636Z,100519.69
2023-01-18T16:04:36.012Z,100498.28
2023-01-18T16:10:32.472Z,100521.06
2023-01-18T16:16:20.350Z,100521.28
2023-01-18T16:21:50.463Z,100506.44
2023-01-18T16:27:19.401Z,100500.72
2023-01-18T16:32:43.583Z,100507.25
2023-01-18T16:38:16.503Z,100524.97
2023-01-18T16:43:41.228Z,100504.81
2023-01-18T16:49:05.010Z,100502.97
2023-01-18T16:54:27.401Z,100505.63
2023-01-18T16:59:50.945Z,100483.44
2023-01-18T17:05:14.648Z,100496.47
2023-01-18T17:10:40.417Z,100506.44
2023-01-18T17:16:02.287Z,100483.47
2023-01-18T17:21:27.853Z,100505.06
2023-01-18T17:26:50.125Z,100498.13
2023-01-18T17:32:16.269Z,100480.81
2023-01-18T17:37:41.313Z,100479.84
2023-01-18T17:43:03.789Z,100479.81
2023-01-18T17:48:26.085Z,100491.63
2023-01-18T17:53:48.274Z,100498.75
2023-01-18T17:59:11.288Z,100489.38
2023-01-18T18:04:34.508Z,100506.47
2023-01-18T18:10:01.759Z,100503.41
2023-01-18T18:15:25.260Z,100487.53
2023-01-18T18:20:47.188Z,100488.78
2023-01-18T18:26:09.680Z,100511.38
2023-01-18T18:31:31.645Z,100516.66
2023-01-18T18:36:53.654Z,100508.13
2023-01-18T18:42:16.106Z,100523.16
2023-01-18T18:47:39.386Z,100511.19
2023-01-18T18:53:02.215Z,100527.00
2023-01-18T18:58:24.749Z,100513.19
2023-01-18T19:03:48.611Z,100538.41
2023-01-18T19:09:10.950Z,100558.72
2023-01-18T19:14:33.140Z,100531.63
2023-01-18T19:19:55.313Z,100537.91
2023-01-18T19:25:18.067Z,100524.09
2023-01-18T19:30:42.068Z,100534.81
2023-01-18T19:36:13.567Z,100521.53
2023-01-18T19:41:35.411Z,100522.31
2023-01-18T19:46:57.511Z,100517.69
2023-01-18T19:52:21.755Z,100510.47
2023-01-18T19:58:01.734Z,100505.56
2023-01-18T20:03:28.948Z,100500.13
2023-01-18T20:09:22.254Z,100501.53
2023-01-18T20:14:54.221Z,100511.94
2023-01-18T20:26:17.980Z,100493.41
2023-01-18T20:32:13.456Z,100503.22
2023-01-18T20:37:42.761Z,100504.00
2023-01-18T20:43:20.723Z,100463.91
2023-01-18T20:49:05.276Z,100448.84
2023-01-18T20:55:12.955Z,100442.53
2023-01-18T21:01:10.364Z,100464.91
2023-01-18T21:06:54.901Z,100460.69
2023-01-18T21:12:30.582Z,100469.66
2023-01-18T21:18:00.051Z,100451.50
2023-01-18T21:23:39.990Z,100471.47
2023-01-18T21:29:09.056Z,100478.81
2023-01-18T21:34:40.609Z,100471.44
2023-01-18T21:40:03.690Z,100492.63
2023-01-18T21:45:47.524Z,100473.28
2023-01-18T21:51:49.325Z,100475.34
2023-01-18T21:57:22.816Z,100485.31
2023-01-18T22:02:51.104Z,100486.13
2023-01-18T22:08:24.084Z,100460.91
2023-01-18T22:20:21.544Z,100468.47
2023-01-18T22:25:44.401Z,100452.81
2023-01-18T22:31:12.526Z,100431.88
2023-01-18T22:36:40.568Z,100439.63
2023-01-18T22:42:08.860Z,100408.13
2023-01-18T22:47:36.244Z,100436.53
2023-01-18T22:53:11.301Z,100411.75
2023-01-18T22:58:39.969Z,100441.47
2023-01-18T23:04:07.268Z,100422.75
2023-01-18T23:09:33.030Z,100425.63
2023-01-18T23:15:27.567Z,100428.91
2023-01-18T23:21:26.260Z,100427.47
2023-01-18T23:26:58.311Z,100420.75
2023-01-18T23:32:35.334Z,100429.91
2023-01-18T23:38:07.084Z,100436.25
2023-01-18T23:43:50.929Z,100424.63
2023-01-18T23:49:35.350Z,100433.41
2023-01-18T23:55:15.842Z,100411.03
